createdAt,value
2022-10-30T00:02:04.994Z,22.43
2022-10-30T00:05:07.737Z,22.37
2022-10-30T00:08:11.224Z,22.35
2022-10-30T00:11:14.198Z,22.44
2022-10-30T00:14:16.461Z,22.44
2022-10-30T00:17:18.697Z,22.44
2022-10-30T00:20:20.936Z,22.42
2022-10-30T00:23:23.256Z,22.39
2022-10-30T00:26:25.717Z,22.37
2022-10-30T00:29:27.909Z,22.35
2022-10-30T00:32:30.143Z,22.40
2022-10-30T00:35:32.670Z,22.30
2022-10-30T00:38:35.097Z,22.32
2022-10-30T00:41:39.550Z,22.31
2022-10-30T00:44:44.587Z,22.40
2022-10-30T00:47:52.996Z,22.31
2022-10-30T00:50:57.892Z,22.37
2022-10-30T00:54:03.120Z,22.38
2022-10-30T00:57:08.071Z,22.27
2022-10-30T01:00:12.163Z,22.31
2022-10-30T01:03:15.656Z,22.29
2022-10-30T01:06:18.446Z,22.33
2022-10-30T01:09:22.079Z,22.34
2022-10-30T01:12:24.333Z,22.34
2022-10-30T01:15:43.589Z,22.35
2022-10-30T01:19:03.606Z,22.33
2022-10-30T01:22:40.492Z,22.32
2022-10-30T01:25:55.407Z,22.32
2022-10-30T01:29:22.376Z,22.24
2022-10-30T01:32:57.316Z,22.32
2022-10-30T01:36:11.726Z,22.31
2022-10-30T01:39:27.545Z,22.30
2022-10-30T01:42:52.136Z,22.32
2022-10-30T01:46:25.273Z,22.29
2022-10-30T01:49:46.164Z,22.30
2022-10-30T01:52:54.524Z,22.30
2022-10-30T01:56:18.978Z,22.26
2022-10-30T01:59:25.828Z,22.30
2022-10-30T02:02:28.594Z,22.30
2022-10-30T02:05:43.378Z,22.27
2022-10-30T02:08:46.029Z,22.29
2022-10-30T02:11:49.891Z,22.28
2022-10-30T02:14:57.941Z,22.26
2022-10-30T02:18:02.739Z,22.28
2022-10-30T02:21:05.332Z,22.28
2022-10-30T02:24:07.665Z,22.27
2022-10-30T02:27:10.593Z,22.27
2022-10-30T02:30:15.795Z,22.16
2022-10-30T02:36:25.366Z,22.13
2022-10-30T02:39:28.991Z,22.27
2022-10-30T02:42:31.397Z,22.15
2022-10-30T02:45:33.661Z,22.24
2022-10-30T02:48:35.892Z,22.24
2022-10-30T02:51:38.119Z,22.22
2022-10-30T02:54:40.350Z,22.20
2022-10-30T02:57:43.506Z,22.18
2022-10-30T03:00:45.980Z,22.24
2022-10-30T03:03:48.293Z,22.24
2022-10-30T03:06:50.526Z,22.24
2022-10-30T03:09:54.286Z,22.17
2022-10-30T03:12:56.502Z,22.13
2022-10-30T03:16:02.414Z,22.22
2022-10-30T03:19:06.968Z,22.20
2022-10-30T03:22:09.425Z,22.18
2022-10-30T03:25:13.576Z,22.21
2022-10-30T03:28:15.829Z,22.12
2022-10-30T03:31:19.436Z,22.17
2022-10-30T03:34:24.580Z,22.21
2022-10-30T03:37:26.889Z,22.12
2022-10-30T03:40:29.096Z,22.10
2022-10-30T03:43:31.503Z,22.19
2022-10-30T03:46:33.832Z,22.18
2022-10-30T03:49:49.712Z,22.17
2022-10-30T03:52:56.902Z,22.19
2022-10-30T03:56:02.302Z,22.17
2022-10-30T03:59:13.383Z,22.18
2022-10-30T04:02:17.494Z,22.20
2022-10-30T04:05:22.654Z,22.14
2022-10-30T04:08:27.795Z,22.16
2022-10-30T04:11:30.255Z,22.13
2022-10-30T04:14:32.514Z,22.16
2022-10-30T04:17:35.500Z,22.16
2022-10-30T04:20:40.286Z,22.14
2022-10-30T04:23:42.733Z,22.17
2022-10-30T04:26:45.264Z,22.16
2022-10-30T04:29:47.676Z,22.14
2022-10-30T04:32:51.852Z,22.13
2022-10-30T04:35:54.878Z,22.15
2022-10-30T04:38:57.342Z,22.15
2022-10-30T04:42:01.993Z,22.15
2022-10-30T04:45:14.865Z,22.15
2022-10-30T04:48:19.129Z,22.05
2022-10-30T04:51:24.075Z,22.11
2022-10-30T04:54:28.647Z,22.12
2022-10-30T04:57:34.393Z,22.12
2022-10-30T05:00:36.688Z,22.10
2022-10-30T05:03:48.100Z,22.13
2022-10-30T05:06:52.858Z,22.13
2022-10-30T05:09:55.088Z,22.08
2022-10-30T05:13:00.136Z,22.01
2022-10-30T05:16:02.414Z,22.10
2022-10-30T05:19:04.802Z,22.11
2022-10-30T05:22:10.390Z,22.13
2022-10-30T05:25:12.960Z,22.12
2022-10-30T05:28:15.779Z,22.01
2022-10-30T05:31:25.084Z,22.11
2022-10-30T05:34:50.234Z,22.12
2022-10-30T05:37:56.222Z,22.09
2022-10-30T05:40:58.549Z,22.00
2022-10-30T05:44:00.925Z,22.01
2022-10-30T05:47:03.316Z,22.09
2022-10-30T05:50:09.412Z,22.09
2022-10-30T05:53:12.004Z,22.07
2022-10-30T05:56:15.278Z,22.10
2022-10-30T05:59:19.029Z,22.08
2022-10-30T06:02:22.077Z,22.01
2022-10-30T06:05:24.376Z,22.06
2022-10-30T06:08:26.557Z,22.08
2022-10-30T06:11:32.087Z,22.07
2022-10-30T06:14:35.402Z,21.98
2022-10-30T06:17:37.952Z,22.08
2022-10-30T06:21:12.356Z,22.06
2022-10-30T06:24:39.755Z,22.06
2022-10-30T06:28:01.038Z,22.08
2022-10-30T06:31:06.391Z,22.08
2022-10-30T06:34:09.315Z,21.96
2022-10-30T06:37:14.600Z,22.01
2022-10-30T06:40:17.352Z,22.02
2022-10-30T06:43:22.472Z,22.06
2022-10-30T06:46:33.674Z,22.08
2022-10-30T06:49:36.335Z,21.90
2022-10-30T06:52:38.843Z,22.05
2022-10-30T06:55:41.963Z,22.00
2022-10-30T06:58:57.360Z,22.02
2022-10-30T07:02:11.496Z,22.06
2022-10-30T07:05:20.210Z,22.06
2022-10-30T07:08:22.617Z,22.05
2022-10-30T07:11:25.299Z,22.04
2022-10-30T07:14:56.789Z,22.07
2022-10-30T07:18:10.729Z,22.07
2022-10-30T07:21:13.058Z,22.05
2022-10-30T07:24:16.236Z,22.05
2022-10-30T07:27:47.988Z,22.07
2022-10-30T07:31:11.946Z,22.06
2022-10-30T07:34:32.680Z,21.99
2022-10-30T07:38:10.199Z,22.07
2022-10-30T07:41:21.660Z,22.07
2022-10-30T07:44:30.903Z,22.06
2022-10-30T07:47:53.908Z,21.98
2022-10-30T07:51:34.599Z,22.06
2022-10-30T07:54:37.656Z,22.03
2022-10-30T07:58:02.670Z,22.06
2022-10-30T08:01:23.823Z,22.05
2022-10-30T08:04:26.791Z,22.00
2022-10-30T08:07:36.198Z,22.05
2022-10-30T08:10:38.504Z,22.00
2022-10-30T08:13:40.741Z,21.99
2022-10-30T08:16:42.959Z,22.00
2022-10-30T08:19:45.244Z,22.06
2022-10-30T08:22:55.747Z,21.95
2022-10-30T08:26:00.651Z,21.98
2022-10-30T08:29:04.107Z,21.98
2022-10-30T08:32:06.829Z,22.04
2022-10-30T08:35:28.582Z,22.05
2022-10-30T08:38:33.529Z,21.99
2022-10-30T08:42:00.149Z,22.07
2022-10-30T08:45:07.652Z,22.06
2022-10-30T08:48:35.963Z,22.01
2022-10-30T08:51:39.105Z,22.05
2022-10-30T08:54:43.000Z,22.08
2022-10-30T08:57:45.866Z,22.08
2022-10-30T09:00:48.074Z,21.99
2022-10-30T09:03:50.235Z,22.09
2022-10-30T09:07:13.176Z,22.11
2022-10-30T09:10:34.161Z,22.04
2022-10-30T09:13:36.501Z,22.05
2022-10-30T09:16:40.518Z,22.03
2022-10-30T09:19:44.121Z,22.11
2022-10-30T09:22:50.679Z,22.10
2022-10-30T09:25:57.812Z,22.05
2022-10-30T09:29:19.376Z,22.12
2022-10-30T09:33:02.686Z,22.12
2022-10-30T09:36:25.424Z,22.04
2022-10-30T09:39:30.007Z,22.13
2022-10-30T09:43:09.126Z,22.15
2022-10-30T09:46:20.010Z,22.14
2022-10-30T09:49:53.352Z,22.17
2022-10-30T09:53:11.777Z,22.22
2022-10-30T09:56:38.453Z,22.37
2022-10-30T10:00:03.212Z,22.44
2022-10-30T10:03:17.838Z,22.48
2022-10-30T10:06:47.530Z,22.48
2022-10-30T10:10:16.154Z,22.54
2022-10-30T10:13:28.335Z,22.60
2022-10-30T10:16:35.268Z,22.60
2022-10-30T10:20:01.890Z,22.60
2022-10-30T10:23:17.571Z,22.70
2022-10-30T10:26:45.280Z,22.75
2022-10-30T10:30:11.150Z,22.76
2022-10-30T10:33:25.419Z,22.77
2022-10-30T10:36:46.516Z,22.78
2022-10-30T10:40:25.770Z,22.80
2022-10-30T10:43:51.147Z,22.84
2022-10-30T10:47:32.300Z,22.88
2022-10-30T10:50:42.097Z,22.89
2022-10-30T10:53:58.805Z,22.83
2022-10-30T10:57:05.368Z,22.90
2022-10-30T11:00:13.341Z,22.89
2022-10-30T11:03:23.229Z,22.90
2022-10-30T11:06:32.382Z,22.87
2022-10-30T11:09:34.611Z,22.86
2022-10-30T11:12:37.533Z,22.91
2022-10-30T11:15:51.368Z,22.98
2022-10-30T11:19:02.953Z,22.89
2022-10-30T11:22:21.909Z,22.97
2022-10-30T11:25:30.164Z,22.96
2022-10-30T11:28:44.865Z,22.98
2022-10-30T11:31:47.228Z,22.94
2022-10-30T11:35:00.622Z,22.99
2022-10-30T11:38:20.189Z,23.02
2022-10-30T11:41:22.559Z,23.05
2022-10-30T11:44:30.729Z,23.01
2022-10-30T11:47:37.237Z,23.00
2022-10-30T11:50:47.395Z,23.04
2022-10-30T11:53:50.918Z,22.96
2022-10-30T11:56:54.259Z,23.04
2022-10-30T12:00:02.071Z,23.04
2022-10-30T12:03:35.142Z,23.02
2022-10-30T12:06:37.344Z,23.06
2022-10-30T12:09:47.389Z,23.03
2022-10-30T12:12:51.417Z,23.10
2022-10-30T12:16:16.551Z,23.10
2022-10-30T12:19:21.858Z,23.08
2022-10-30T12:22:27.359Z,23.11
2022-10-30T12:25:32.283Z,23.07
2022-10-30T12:28:35.513Z,23.14
2022-10-30T12:32:01.282Z,23.10
2022-10-30T12:35:14.563Z,23.14
2022-10-30T12:38:35.639Z,23.15
2022-10-30T12:41:47.895Z,23.14
2022-10-30T12:45:02.662Z,23.13
2022-10-30T12:48:23.634Z,23.14
2022-10-30T12:51:32.095Z,23.15
2022-10-30T12:54:39.583Z,23.15
2022-10-30T12:58:04.744Z,23.08
2022-10-30T13:01:36.830Z,23.17
2022-10-30T13:04:45.058Z,23.18
2022-10-30T13:08:25.441Z,23.19
2022-10-30T13:11:36.513Z,23.20
2022-10-30T13:14:47.722Z,23.17
2022-10-30T13:17:50.374Z,23.12
2022-10-30T13:21:31.523Z,23.21
2022-10-30T13:24:57.902Z,23.21
2022-10-30T13:28:25.845Z,23.20
2022-10-30T13:31:46.320Z,23.22
2022-10-30T13:35:06.213Z,23.20
2022-10-30T13:38:35.652Z,23.23
2022-10-30T13:41:52.768Z,23.23
2022-10-30T13:45:14.563Z,23.19
2022-10-30T13:48:51.146Z,23.23
2022-10-30T13:52:15.903Z,23.23
2022-10-30T13:55:25.958Z,23.22
2022-10-30T13:58:50.674Z,23.24
2022-10-30T14:02:17.623Z,23.20
2022-10-30T14:05:41.744Z,23.24
2022-10-30T14:08:57.866Z,23.21
2022-10-30T14:12:37.838Z,23.24
2022-10-30T14:15:47.009Z,23.20
2022-10-30T14:19:04.215Z,23.23
2022-10-30T14:22:23.877Z,23.17
2022-10-30T14:25:26.066Z,23.11
2022-10-30T14:28:29.181Z,23.21
2022-10-30T14:31:36.865Z,23.22
2022-10-30T14:34:57.134Z,23.21
2022-10-30T14:38:22.923Z,23.22
2022-10-30T14:41:27.417Z,23.22
2022-10-30T14:44:42.338Z,23.23
2022-10-30T14:48:23.469Z,23.23
2022-10-30T14:51:59.485Z,23.21
2022-10-30T14:55:20.416Z,23.21
2022-10-30T14:58:26.182Z,23.23
2022-10-30T15:01:42.641Z,23.23
2022-10-30T15:05:13.272Z,23.19
2022-10-30T15:08:30.555Z,23.17
2022-10-30T15:12:00.214Z,23.17
2022-10-30T15:15:09.627Z,23.16
2022-10-30T15:18:19.406Z,23.13
2022-10-30T15:21:25.515Z,23.16
2022-10-30T15:24:32.405Z,23.15
2022-10-30T15:27:40.174Z,23.16
2022-10-30T15:30:59.673Z,23.10
2022-10-30T15:34:01.897Z,23.09
2022-10-30T15:37:13.511Z,23.05
2022-10-30T15:40:20.658Z,23.12
2022-10-30T15:43:28.564Z,23.05
2022-10-30T15:46:31.593Z,23.11
2022-10-30T15:49:36.192Z,23.06
2022-10-30T15:52:42.380Z,23.07
2022-10-30T15:55:44.653Z,23.05
2022-10-30T15:58:57.478Z,22.95
2022-10-30T16:01:59.858Z,22.95
2022-10-30T16:05:02.224Z,22.96
2022-10-30T16:08:14.355Z,22.89
2022-10-30T16:11:16.834Z,22.97
2022-10-30T16:14:24.314Z,22.88
2022-10-30T16:17:27.299Z,22.91
2022-10-30T16:20:29.664Z,22.94
2022-10-30T16:23:41.877Z,22.94
2022-10-30T16:26:45.366Z,22.84
2022-10-30T16:29:53.865Z,22.75
2022-10-30T16:32:56.582Z,22.79
2022-10-30T16:36:00.134Z,22.77
2022-10-30T16:39:03.585Z,22.78
2022-10-30T16:42:05.847Z,22.78
2022-10-30T16:45:11.244Z,22.79
2022-10-30T16:48:24.622Z,22.80
2022-10-30T16:51:27.460Z,22.75
2022-10-30T16:54:37.130Z,22.73
2022-10-30T16:57:44.737Z,22.62
2022-10-30T17:00:53.470Z,22.66
2022-10-30T17:03:56.474Z,22.65
2022-10-30T17:07:19.849Z,22.69
2022-10-30T17:10:36.218Z,22.67
2022-10-30T17:13:57.071Z,22.64
2022-10-30T17:17:02.039Z,22.65
2022-10-30T17:20:22.750Z,22.64
2022-10-30T17:23:27.433Z,22.61
2022-10-30T17:26:35.379Z,22.50
2022-10-30T17:29:37.547Z,22.59
2022-10-30T17:32:44.973Z,22.52
2022-10-30T17:35:47.196Z,22.59
2022-10-30T17:38:49.495Z,22.54
2022-10-30T17:41:56.073Z,22.61
2022-10-30T17:44:58.275Z,22.61
2022-10-30T17:48:00.776Z,22.53
2022-10-30T17:51:03.473Z,22.54
2022-10-30T17:54:13.389Z,22.52
2022-10-30T17:57:16.703Z,22.50
2022-10-30T18:00:19.115Z,22.51
2022-10-30T18:03:21.396Z,22.57
2022-10-30T18:06:26.249Z,22.52
2022-10-30T18:09:28.456Z,22.56
2022-10-30T18:12:30.678Z,22.58
2022-10-30T18:15:40.875Z,22.50
2022-10-30T18:18:44.135Z,22.54
2022-10-30T18:21:48.464Z,22.45
2022-10-30T18:24:50.729Z,22.47
2022-10-30T18:27:53.379Z,22.45
2022-10-30T18:30:58.437Z,22.53
2022-10-30T18:34:00.956Z,22.51
2022-10-30T18:37:03.147Z,22.53
2022-10-30T18:40:05.902Z,22.47
2022-10-30T18:43:11.484Z,22.44
2022-10-30T18:46:14.599Z,22.49
2022-10-30T18:49:18.940Z,22.37
2022-10-30T18:52:21.224Z,22.46
2022-10-30T18:55:35.789Z,22.50
2022-10-30T18:58:38.133Z,22.50
2022-10-30T19:01:40.601Z,22.50
2022-10-30T19:04:42.889Z,22.39
2022-10-30T19:07:45.100Z,22.51
2022-10-30T19:10:47.845Z,22.48
2022-10-30T19:13:51.725Z,22.37
2022-10-30T19:16:53.976Z,22.41
2022-10-30T19:19:56.174Z,22.45
2022-10-30T19:22:58.997Z,22.37
2022-10-30T19:26:01.647Z,22.46
2022-10-30T19:29:03.882Z,22.47
2022-10-30T19:32:06.114Z,22.44
2022-10-30T19:35:08.900Z,22.43
2022-10-30T19:38:12.659Z,22.43
2022-10-30T19:41:14.979Z,22.37
2022-10-30T19:44:17.245Z,22.43
2022-10-30T19:47:19.586Z,22.39
2022-10-30T19:50:31.097Z,22.45
2022-10-30T19:53:33.289Z,22.44
2022-10-30T19:56:35.769Z,22.45
2022-10-30T19:59:37.928Z,22.42
2022-10-30T20:02:40.166Z,22.46
2022-10-30T20:05:50.245Z,22.44
2022-10-30T20:08:52.516Z,22.39
2022-10-30T20:11:54.758Z,22.41
2022-10-30T20:14:56.941Z,22.33
2022-10-30T20:17:59.988Z,22.40
2022-10-30T20:21:05.979Z,22.28
2022-10-30T20:24:09.688Z,22.39
2022-10-30T20:27:11.968Z,22.43
2022-10-30T20:30:19.125Z,22.39
2022-10-30T20:33:22.411Z,22.38
2022-10-30T20:36:24.619Z,22.37
2022-10-30T20:39:26.819Z,22.27
2022-10-30T20:42:34.379Z,22.31
2022-10-30T20:45:39.232Z,22.32
2022-10-30T20:48:41.645Z,22.38
2022-10-30T20:51:43.854Z,22.29
2022-10-30T20:54:46.219Z,22.34
2022-10-30T20:57:48.479Z,22.26
2022-10-30T21:00:53.286Z,22.33
2022-10-30T21:04:00.581Z,22.32
2022-10-30T21:07:04.021Z,22.33
2022-10-30T21:10:06.661Z,22.33
2022-10-30T21:13:10.973Z,22.33
2022-10-30T21:16:13.638Z,22.34
2022-10-30T21:19:15.873Z,22.34
2022-10-30T21:22:18.076Z,22.22
2022-10-30T21:25:20.377Z,22.32
2022-10-30T21:28:22.616Z,22.28
2022-10-30T21:31:24.819Z,22.27
2022-10-30T21:34:27.282Z,22.29
2022-10-30T21:37:29.638Z,22.28
2022-10-30T21:40:31.845Z,22.30
2022-10-30T21:43:34.167Z,22.30
2022-10-30T21:46:36.413Z,22.29
2022-10-30T21:49:38.608Z,22.30
2022-10-30T21:52:40.969Z,22.29
2022-10-30T21:55:43.128Z,22.27
2022-10-30T21:58:46.189Z,22.23
2022-10-30T22:01:48.475Z,22.29
2022-10-30T22:04:50.823Z,22.29
2022-10-30T22:07:53.065Z,22.24
2022-10-30T22:10:55.238Z,22.20
2022-10-30T22:13:59.909Z,22.17
2022-10-30T22:17:02.131Z,22.29
2022-10-30T22:20:04.686Z,22.27
2022-10-30T22:23:06.918Z,22.25
2022-10-30T22:26:14.523Z,22.24
2022-10-30T22:29:16.751Z,22.17
2022-10-30T22:32:18.961Z,22.21
2022-10-30T22:35:21.152Z,22.19
2022-10-30T22:38:23.482Z,22.21
2022-10-30T22:41:27.109Z,22.22
2022-10-30T22:44:30.917Z,22.12
2022-10-30T22:47:33.188Z,22.17
2022-10-30T22:50:36.950Z,22.22
2022-10-30T22:53:39.657Z,22.16
2022-10-30T22:56:42.301Z,22.16
2022-10-30T22:59:44.515Z,22.20
2022-10-30T23:02:46.774Z,22.14
2022-10-30T23:05:59.560Z,22.17
2022-10-30T23:09:05.856Z,22.22
2022-10-30T23:12:08.193Z,22.14
2022-10-30T23:15:10.833Z,22.18
2022-10-30T23:18:13.211Z,22.20
2022-10-30T23:21:20.981Z,22.17
2022-10-30T23:24:26.584Z,22.01
2022-10-30T23:27:28.780Z,22.16
2022-10-30T23:30:30.960Z,22.12
2022-10-30T23:33:33.423Z,22.12
2022-10-30T23:36:36.001Z,22.13
2022-10-30T23:39:38.214Z,22.17
2022-10-30T23:42:40.407Z,22.08
2022-10-30T23:45:42.578Z,22.13
2022-10-30T23:48:44.793Z,22.11
2022-10-30T23:51:47.026Z,22.16
2022-10-30T23:54:49.288Z,22.08
2022-10-30T23:57:51.608Z,22.14
